Time;durP1;ratioP1;P1;durP2;ratioP2;P2;SDS_P1;SDS_P2;PMS_P1;PMS_P2;Temp;Humidity;BMP_temperature;BMP_pressure;BME280_temperature;BME280_humidity;BME280_pressure;Samples;Min_cycle;Max_cycle;Signal;HPM_P1;HPM_P2
2022/08/13 00:02:10;;;;;;;5.68;3.05;;;21.50;94.60;;;;;;5010470;28;20046;-61
2022/08/13 00:04:36;;;;;;;5.28;3.47;;;21.50;94.40;;;;;;5014435;28;20060;-61
2022/08/13 00:09:28;;;;;;;7.30;3.33;;;21.30;94.70;;;;;;5013922;28;20125;-62
2022/08/13 00:14:37;;;;;;;;;;;21.20;95.20;;;;;;5014198;28;20057;-62
2022/08/13 00:17:09;;;;;;;5.70;3.08;;;21.20;95.40;;;;;;5016834;28;19925;-62
2022/08/13 00:19:38;;;;;;;6.68;3.33;;;21.20;95.40;;;;;;5014090;28;20524;-62
2022/08/13 00:22:04;;;;;;;6.13;3.45;;;21.20;95.40;;;;;;5014811;28;20046;-61
2022/08/13 00:24:29;;;;;;;6.10;3.20;;;21.10;95.70;;;;;;5020373;28;20052;-61
2022/08/13 00:26:59;;;;;;;5.43;3.28;;;21.10;96.10;;;;;;5019931;28;20129;-61
2022/08/13 00:29:26;;;;;;;4.95;3.00;;;21.10;95.70;;;;;;5014463;28;20146;-61
2022/08/13 00:31:52;;;;;;;6.63;3.30;;;21.10;95.90;;;;;;5014483;28;20093;-61
2022/08/13 00:34:18;;;;;;;4.40;3.20;;;21.10;95.80;;;;;;5018275;28;20045;-61
2022/08/13 00:36:44;;;;;;;7.15;3.95;;;21.00;96.00;;;;;;5020987;28;20042;-61
2022/08/13 00:39:10;;;;;;;6.05;3.20;;;21.00;96.20;;;;;;5012905;28;20045;-61
2022/08/13 00:41:38;;;;;;;6.47;3.45;;;20.90;96.60;;;;;;5019910;28;20054;-61
2022/08/13 00:44:15;;;;;;;6.00;3.38;;;20.90;96.60;;;;;;5013032;28;20061;-61
2022/08/13 00:46:42;;;;;;;9.43;3.70;;;20.90;96.60;;;;;;5019569;28;20049;-62
2022/08/13 00:49:10;;;;;;;8.20;3.88;;;20.90;96.50;;;;;;5014049;28;20403;-62
2022/08/13 00:51:37;;;;;;;7.10;3.80;;;20.90;96.90;;;;;;5016459;28;20164;-61
2022/08/13 00:54:07;;;;;;;6.63;3.22;;;20.90;96.80;;;;;;5015481;28;20050;-62
2022/08/13 00:56:34;;;;;;;4.68;3.35;;;20.90;97.00;;;;;;5015918;28;20038;-62
2022/08/13 00:59:09;;;;;;;9.07;3.80;;;20.90;96.90;;;;;;5022110;28;20056;-61
2022/08/13 01:01:36;;;;;;;4.75;3.17;;;20.80;97.50;;;;;;5009665;28;20073;-61
2022/08/13 01:04:07;;;;;;;6.07;3.70;;;20.80;97.30;;;;;;5016836;28;20045;-61
2022/08/13 01:06:33;;;;;;;4.55;3.42;;;20.70;97.10;;;;;;5013905;28;20148;-62
2022/08/13 01:08:59;;;;;;;7.82;3.85;;;20.70;97.20;;;;;;5017679;28;20476;-61
2022/08/13 01:11:27;;;;;;;7.47;3.60;;;20.60;97.40;;;;;;5013770;28;20094;-62
2022/08/13 01:13:53;;;;;;;7.15;4.10;;;20.50;98.10;;;;;;5016223;28;20054;-61
2022/08/13 01:16:19;;;;;;;7.07;4.38;;;20.50;97.80;;;;;;5013148;28;20099;-62
2022/08/13 01:18:50;;;;;;;6.97;3.67;;;20.50;98.30;;;;;;5015250;28;20093;-61
2022/08/13 01:21:30;;;;;;;6.97;4.05;;;20.40;98.40;;;;;;5010680;28;20407;-61
2022/08/13 01:23:56;;;;;;;5.75;3.80;;;20.50;98.40;;;;;;5016278;28;20042;-61
2022/08/13 01:26:23;;;;;;;7.05;3.45;;;20.40;98.00;;;;;;5016675;28;20377;-61
2022/08/13 01:28:51;;;;;;;5.68;3.40;;;20.40;98.70;;;;;;5010981;28;20938;-60
2022/08/13 01:31:18;;;;;;;4.93;4.00;;;20.40;98.60;;;;;;5015874;28;20068;-60
2022/08/13 01:33:49;;;;;;;8.32;3.72;;;20.40;98.70;;;;;;5012755;28;20483;-60
2022/08/13 01:36:16;;;;;;;6.40;3.90;;;20.40;98.90;;;;;;5015528;28;20038;-60
2022/08/13 01:38:42;;;;;;;4.70;3.47;;;20.40;98.90;;;;;;5012076;28;20050;-61
2022/08/13 01:41:09;;;;;;;5.32;4.13;;;20.30;99.00;;;;;;5014795;28;20060;-61
2022/08/13 01:43:40;;;;;;;7.03;3.53;;;20.30;99.00;;;;;;5016458;28;20496;-61
2022/08/13 01:46:11;;;;;;;5.57;3.70;;;20.20;99.20;;;;;;5014610;28;20049;-61
2022/08/13 01:51:28;;;;;;;6.03;3.70;;;20.20;99.30;;;;;;5007696;28;20052;-61
2022/08/13 01:53:58;;;;;;;9.23;4.00;;;20.10;99.90;;;;;;5015839;28;20046;-63
2022/08/13 01:56:26;;;;;;;5.82;3.72;;;20.00;99.80;;;;;;5009298;28;20070;-62
2022/08/13 01:58:54;;;;;;;5.50;3.90;;;20.00;99.90;;;;;;5015814;28;20502;-62
2022/08/13 02:01:25;;;;;;;6.28;3.85;;;20.00;99.90;;;;;;5012543;28;20121;-61
2022/08/13 02:03:56;;;;;;;6.40;3.53;;;19.90;99.90;;;;;;5015034;28;20129;-61
2022/08/13 02:06:24;;;;;;;10.23;3.97;;;19.90;99.90;;;;;;5010084;28;20143;-62
2022/08/13 02:08:52;;;;;;;8.00;3.90;;;19.90;99.90;;;;;;5008816;28;20050;-61
2022/08/13 02:11:18;;;;;;;6.22;4.00;;;19.80;99.90;;;;;;5009387;28;20052;-61
2022/08/13 02:13:45;;;;;;;5.93;4.38;;;19.80;99.90;;;;;;5008864;28;20042;-61
2022/08/13 02:16:10;;;;;;;7.72;4.00;;;19.80;99.90;;;;;;5007908;28;20448;-63
2022/08/13 02:18:38;;;;;;;9.57;4.40;;;19.70;99.90;;;;;;5009287;28;20121;-64
2022/08/13 02:21:04;;;;;;;5.50;3.60;;;19.70;99.90;;;;;;5004379;28;20057;-61
2022/08/13 02:23:33;;;;;;;7.53;4.25;;;19.70;99.90;;;;;;5008095;28;20120;-62
2022/08/13 02:26:01;;;;;;;8.23;4.32;;;19.70;99.90;;;;;;5007837;28;20053;-61
2022/08/13 02:28:32;;;;;;;6.18;4.15;;;19.70;99.90;;;;;;5008770;28;20394;-61
2022/08/13 02:30:57;;;;;;;7.25;4.55;;;19.60;99.90;;;;;;5003773;28;20607;-61
2022/08/13 02:33:24;;;;;;;6.75;4.60;;;19.70;99.90;;;;;;5013651;28;20112;-61
2022/08/13 02:35:51;;;;;;;7.28;4.55;;;19.60;99.90;;;;;;5010653;28;20061;-61
2022/08/13 02:38:17;;;;;;;7.40;4.63;;;19.60;99.90;;;;;;5009697;28;20785;-61
2022/08/13 02:43:31;;;;;;;10.70;4.80;;;19.60;99.90;;;;;;5016590;28;20176;-62
2022/08/13 02:46:00;;;;;;;7.80;4.93;;;19.60;99.90;;;;;;5012292;28;20046;-61
2022/08/13 02:48:26;;;;;;;6.63;3.80;;;19.60;99.90;;;;;;5013228;28;20053;-61
2022/08/13 02:50:55;;;;;;;6.32;4.60;;;19.60;99.90;;;;;;5012644;28;20376;-61
2022/08/13 02:53:22;;;;;;;6.47;4.60;;;19.60;99.90;;;;;;5011677;28;20045;-60
2022/08/13 02:55:47;;;;;;;6.72;4.20;;;19.60;99.90;;;;;;5012152;28;20117;-62
2022/08/13 02:58:14;;;;;;;8.80;4.75;;;19.50;99.90;;;;;;5010702;28;20439;-61
2022/08/13 03:00:41;;;;;;;7.75;4.60;;;19.50;99.90;;;;;;5018146;28;20093;-62
2022/08/13 03:03:08;;;;;;;6.70;4.20;;;19.50;99.90;;;;;;5022700;28;20120;-60
2022/08/13 03:05:34;;;;;;;6.45;4.47;;;19.60;99.90;;;;;;5014375;28;20053;-61
2022/08/13 03:08:01;;;;;;;6.82;4.60;;;19.50;99.90;;;;;;5020027;28;20045;-61
2022/08/13 03:10:27;;;;;;;7.93;4.50;;;19.50;99.90;;;;;;5017016;28;20050;-61
2022/08/13 03:13:00;;;;;;;6.25;4.68;;;19.50;99.90;;;;;;5018764;28;20057;-61
2022/08/13 03:15:27;;;;;;;8.65;4.93;;;19.50;99.90;;;;;;5015410;28;20124;-61
2022/08/13 03:17:53;;;;;;;10.00;5.55;;;19.50;99.90;;;;;;4981907;28;20042;-60
2022/08/13 03:20:20;;;;;;;8.05;4.90;;;19.40;99.90;;;;;;5012224;28;20046;-61
2022/08/13 03:22:58;;;;;;;6.47;4.43;;;19.50;99.90;;;;;;5011998;28;20137;-64
2022/08/13 03:25:26;;;;;;;5.93;4.10;;;19.40;99.90;;;;;;5012022;28;20050;-61
2022/08/13 03:27:53;;;;;;;6.55;4.50;;;19.40;99.90;;;;;;4994837;28;20062;-61
2022/08/13 03:30:21;;;;;;;7.53;5.07;;;19.40;99.90;;;;;;5012380;28;20049;-62
2022/08/13 03:32:48;;;;;;;5.70;4.80;;;19.30;99.90;;;;;;4998915;28;20050;-64
2022/08/13 03:35:16;;;;;;;9.32;4.68;;;19.30;99.90;;;;;;5012932;28;20041;-61
2022/08/13 03:37:44;;;;;;;5.75;4.80;;;19.30;99.90;;;;;;5019608;28;20037;-61
2022/08/13 03:40:11;;;;;;;8.32;5.05;;;19.30;99.90;;;;;;5013429;28;20046;-61
2022/08/13 03:42:40;;;;;;;6.72;4.80;;;19.20;99.90;;;;;;5014448;28;20054;-60
2022/08/13 03:45:07;;;;;;;7.72;4.50;;;19.20;99.90;;;;;;5012632;28;20364;-61
2022/08/13 03:47:33;;;;;;;6.20;4.70;;;19.10;99.90;;;;;;5012604;28;20084;-61
2022/08/13 03:50:01;;;;;;;8.43;4.95;;;19.10;99.90;;;;;;4993690;28;20081;-61
2022/08/13 03:52:30;;;;;;;10.13;4.57;;;19.10;99.90;;;;;;4998504;28;20045;-63
2022/08/13 03:54:57;;;;;;;8.57;4.90;;;19.10;99.90;;;;;;5010401;28;20533;-60
2022/08/13 03:57:23;;;;;;;7.05;4.45;;;19.10;99.90;;;;;;5017282;28;20042;-61
2022/08/13 03:59:49;;;;;;;8.32;4.90;;;19.00;99.90;;;;;;5014826;28;20473;-63
2022/08/13 04:02:16;;;;;;;6.55;5.20;;;19.00;99.90;;;;;;5017212;28;20188;-61
2022/08/13 04:04:46;;;;;;;7.95;5.28;;;18.90;99.90;;;;;;5017820;28;20054;-61
2022/08/13 04:07:17;;;;;;;7.90;4.78;;;18.90;99.90;;;;;;5016115;28;20224;-61
2022/08/13 04:09:44;;;;;;;5.80;4.65;;;18.90;99.90;;;;;;5008041;28;20049;-61
2022/08/13 04:12:12;;;;;;;7.55;5.03;;;18.90;99.90;;;;;;5015130;28;20054;-62
2022/08/13 04:14:42;;;;;;;7.00;4.88;;;18.90;99.90;;;;;;5019394;28;20045;-61
2022/08/13 04:17:10;;;;;;;9.25;4.80;;;18.90;99.90;;;;;;5014900;28;20054;-61
2022/08/13 04:19:40;;;;;;;8.15;5.10;;;18.80;99.90;;;;;;5007684;28;20052;-60
2022/08/13 04:22:07;;;;;;;7.85;5.05;;;18.80;99.90;;;;;;5009551;28;20076;-61
2022/08/13 04:24:33;;;;;;;5.97;4.80;;;18.80;99.90;;;;;;5009665;28;20045;-61
2022/08/13 04:27:01;;;;;;;7.15;4.82;;;18.80;99.90;;;;;;5009192;28;20439;-61
2022/08/13 04:29:27;;;;;;;8.65;4.47;;;18.80;99.90;;;;;;5010487;28;20060;-60
2022/08/13 04:31:52;;;;;;;7.75;4.70;;;18.80;99.90;;;;;;5011103;28;20046;-63
2022/08/13 04:34:20;;;;;;;7.90;4.75;;;18.80;99.90;;;;;;5010735;28;20110;-61
2022/08/13 04:36:46;;;;;;;7.85;4.95;;;18.80;99.90;;;;;;5010857;28;20046;-64
2022/08/13 04:39:12;;;;;;;6.63;5.10;;;18.80;99.90;;;;;;5009801;28;20489;-61
2022/08/13 04:41:38;;;;;;;6.55;4.40;;;18.80;99.90;;;;;;5009394;28;20042;-60
2022/08/13 04:44:03;;;;;;;8.05;4.80;;;18.80;99.90;;;;;;4976749;28;20450;-60
2022/08/13 04:46:29;;;;;;;6.18;4.18;;;18.80;99.90;;;;;;5010536;28;20046;-60
2022/08/13 04:48:55;;;;;;;7.70;4.70;;;18.80;99.90;;;;;;5010284;28;20140;-63
2022/08/13 04:51:23;;;;;;;6.43;4.45;;;18.80;99.90;;;;;;5009501;28;20053;-60
2022/08/13 04:53:48;;;;;;;9.15;4.90;;;18.80;99.90;;;;;;5006471;28;20457;-61
2022/08/13 04:56:14;;;;;;;9.10;5.00;;;18.80;99.90;;;;;;5001078;28;20050;-61
2022/08/13 04:58:40;;;;;;;8.45;4.53;;;18.90;99.90;;;;;;4996624;28;20042;-61
2022/08/13 05:01:10;;;;;;;7.50;4.53;;;18.90;99.90;;;;;;4992334;28;20124;-62
2022/08/13 05:03:41;;;;;;;6.10;4.00;;;18.90;99.90;;;;;;5001829;28;20049;-61
2022/08/13 05:06:12;;;;;;;6.43;4.15;;;18.90;99.90;;;;;;5008506;28;20089;-61
2022/08/13 05:08:40;;;;;;;7.25;4.47;;;19.00;99.90;;;;;;5010836;28;20057;-61
2022/08/13 05:11:07;;;;;;;8.02;4.72;;;19.00;99.90;;;;;;5009255;28;20061;-62
2022/08/13 05:13:36;;;;;;;9.68;4.80;;;19.10;99.90;;;;;;5009943;28;20180;-61
2022/08/13 05:16:07;;;;;;;6.30;4.25;;;19.10;99.90;;;;;;5007760;28;20097;-61
2022/08/13 05:18:37;;;;;;;5.53;4.47;;;19.20;99.90;;;;;;5009576;28;20053;-61
2022/08/13 05:21:06;;;;;;;8.48;4.05;;;19.20;99.90;;;;;;5009800;28;20645;-62
2022/08/13 05:23:34;;;;;;;8.70;4.10;;;19.20;99.90;;;;;;5009193;28;20147;-61
2022/08/13 05:26:00;;;;;;;7.30;4.35;;;19.30;99.90;;;;;;5008618;28;20045;-64
2022/08/13 05:28:27;;;;;;;7.28;4.40;;;19.40;99.90;;;;;;5010332;28;20065;-61
2022/08/13 05:30:52;;;;;;;14.15;5.18;;;19.50;99.90;;;;;;5009933;28;20050;-61
2022/08/13 05:33:21;;;;;;;11.73;4.97;;;19.60;99.80;;;;;;5010093;28;20410;-61
2022/08/13 05:35:49;;;;;;;10.93;4.85;;;19.80;99.70;;;;;;5006472;28;20510;-61
2022/08/13 05:38:17;;;;;;;10.70;4.40;;;20.10;99.50;;;;;;5009633;28;20038;-62
2022/08/13 05:40:43;;;;;;;8.80;3.83;;;20.60;99.40;;;;;;5008835;28;20414;-62
2022/08/13 05:43:19;;;;;;;9.05;4.07;;;21.40;99.40;;;;;;5009286;28;20049;-62
2022/08/13 05:46:00;;;;;;;5.93;4.00;;;22.30;97.40;;;;;;5008712;28;20048;-62
2022/08/13 05:48:31;;;;;;;5.97;3.63;;;23.20;94.90;;;;;;4999057;28;20054;-62
2022/08/13 05:50:59;;;;;;;6.78;3.80;;;23.90;94.20;;;;;;4997262;28;20046;-62
2022/08/13 05:53:26;;;;;;;5.80;3.42;;;24.70;93.60;;;;;;4997871;28;20042;-62
2022/08/13 05:55:53;;;;;;;5.50;3.50;;;25.40;92.40;;;;;;4999782;28;20168;-62
2022/08/13 05:58:21;;;;;;;7.47;3.35;;;26.10;91.50;;;;;;4995414;28;20042;-62
2022/08/13 06:03:31;;;;;;;6.30;3.08;;;27.70;90.60;;;;;;4996367;28;20129;-61
2022/08/13 06:06:04;;;;;;;14.32;3.58;;;28.50;86.80;;;;;;5004532;28;20117;-61
2022/08/13 06:08:36;;;;;;;8.43;3.20;;;29.20;85.70;;;;;;5009261;28;20081;-61
2022/08/13 06:11:17;;;;;;;7.60;3.10;;;30.10;86.30;;;;;;5009594;28;20045;-61
2022/08/13 06:13:45;;;;;;;5.90;3.08;;;30.80;79.30;;;;;;5006218;28;20041;-61
2022/08/13 06:16:13;;;;;;;7.22;3.30;;;31.20;79.40;;;;;;5013357;28;20053;-62
2022/08/13 06:18:43;;;;;;;8.20;3.50;;;31.40;80.60;;;;;;5013386;28;20136;-61
2022/08/13 06:21:11;;;;;;;7.22;2.70;;;31.40;78.90;;;;;;5013062;28;20038;-61
2022/08/13 06:23:38;;;;;;;5.30;3.28;;;31.50;78.00;;;;;;5013116;28;20046;-61
2022/08/13 06:26:09;;;;;;;7.88;3.08;;;31.50;78.20;;;;;;5013220;28;20064;-61
2022/08/13 06:28:36;;;;;;;4.13;2.88;;;31.50;75.70;;;;;;5013091;28;20530;-61
2022/08/13 06:31:07;;;;;;;4.60;2.83;;;31.50;74.40;;;;;;4996206;28;20128;-62
2022/08/13 06:33:36;;;;;;;4.55;2.83;;;31.60;77.70;;;;;;4995113;28;20058;-61
2022/08/13 06:36:09;;;;;;;5.00;2.88;;;31.70;77.30;;;;;;5012089;28;20384;-62
2022/08/13 06:38:45;;;;;;;7.40;2.70;;;31.70;75.50;;;;;;5010991;28;20049;-62
2022/08/13 06:41:12;;;;;;;4.88;3.05;;;31.90;75.10;;;;;;5006097;28;20046;-61
2022/08/13 06:43:40;;;;;;;6.18;3.15;;;31.90;74.20;;;;;;5013015;28;20050;-62
2022/08/13 06:46:07;;;;;;;4.82;2.70;;;32.10;75.30;;;;;;5013115;28;20046;-62
2022/08/13 06:48:33;;;;;;;6.88;3.13;;;32.10;74.60;;;;;;5011729;28;20057;-62
2022/08/13 06:51:01;;;;;;;7.38;2.85;;;31.90;73.20;;;;;;5012899;28;20054;-62
2022/08/13 06:53:28;;;;;;;7.72;2.70;;;32.00;74.50;;;;;;5012226;28;20046;-62
2022/08/13 06:55:53;;;;;;;6.32;2.90;;;32.20;73.10;;;;;;5013008;28;20049;-61
2022/08/13 06:58:25;;;;;;;5.65;2.78;;;32.30;74.10;;;;;;5011159;28;20488;-61
2022/08/13 07:00:53;;;;;;;7.28;2.90;;;32.70;72.80;;;;;;5012934;28;20089;-63
2022/08/13 07:03:19;;;;;;;5.38;2.65;;;32.90;74.00;;;;;;5011608;28;20050;-61
2022/08/13 07:05:46;;;;;;;6.00;2.72;;;33.10;73.60;;;;;;4978999;28;20137;-61
2022/08/13 07:08:12;;;;;;;7.88;2.88;;;33.50;72.10;;;;;;5012686;28;20092;-62
2022/08/13 07:10:43;;;;;;;4.18;2.60;;;33.80;73.30;;;;;;5012078;28;20042;-62
2022/08/13 07:13:09;;;;;;;7.07;2.53;;;34.10;71.80;;;;;;5012401;28;20056;-61
2022/08/13 07:15:36;;;;;;;8.70;2.47;;;34.10;72.10;;;;;;5008786;28;20050;-62
2022/08/13 07:18:07;;;;;;;6.75;2.38;;;33.80;71.30;;;;;;5012611;28;20108;-62
2022/08/13 07:20:33;;;;;;;4.68;2.42;;;33.70;71.80;;;;;;5011888;28;20164;-62
2022/08/13 07:22:59;;;;;;;5.63;2.28;;;33.60;72.00;;;;;;5012172;28;20534;-62
2022/08/13 07:25:30;;;;;;;6.88;2.50;;;33.50;72.20;;;;;;4989240;28;20156;-62
2022/08/13 07:27:58;;;;;;;7.05;2.58;;;33.50;72.10;;;;;;5012625;28;20136;-61
2022/08/13 07:30:25;;;;;;;6.47;2.30;;;33.60;71.10;;;;;;5011698;28;20054;-61
2022/08/13 07:32:51;;;;;;;6.07;2.50;;;33.60;71.60;;;;;;5012371;28;20061;-62
2022/08/13 07:35:18;;;;;;;4.60;2.40;;;33.70;71.60;;;;;;5011507;28;20034;-63
2022/08/13 07:37:44;;;;;;;7.60;2.42;;;34.00;71.80;;;;;;5012564;28;20071;-61
2022/08/13 07:40:10;;;;;;;4.07;2.28;;;34.30;71.70;;;;;;5011248;28;20121;-61
2022/08/13 07:42:40;;;;;;;6.75;2.38;;;34.70;70.10;;;;;;5011516;28;20754;-61
2022/08/13 07:45:10;;;;;;;3.45;1.80;;;35.00;70.00;;;;;;5011783;28;20053;-62
2022/08/13 07:47:38;;;;;;;4.50;2.00;;;35.10;69.80;;;;;;5011317;28;20049;-61
2022/08/13 07:50:10;;;;;;;6.53;1.95;;;35.50;68.90;;;;;;5010719;28;20054;-61
2022/08/13 07:52:37;;;;;;;4.10;1.60;;;35.90;68.40;;;;;;5011642;28;20128;-62
2022/08/13 07:55:04;;;;;;;5.05;1.70;;;35.90;69.20;;;;;;5011015;28;20057;-61
2022/08/13 07:57:31;;;;;;;2.67;1.83;;;36.20;68.80;;;;;;5011179;28;20100;-61
2022/08/13 07:59:57;;;;;;;6.60;2.05;;;36.10;67.80;;;;;;5011538;28;20376;-62
2022/08/13 08:02:25;;;;;;;5.40;1.70;;;36.10;66.90;;;;;;5011350;28;20132;-62
2022/08/13 08:04:57;;;;;;;4.68;1.88;;;36.60;66.90;;;;;;5006681;28;20045;-62
2022/08/13 08:07:25;;;;;;;4.80;1.60;;;36.80;66.80;;;;;;5010897;28;20037;-63
2022/08/13 08:09:53;;;;;;;4.80;1.70;;;37.20;66.20;;;;;;5010557;28;20100;-61
2022/08/13 08:12:35;;;;;;;4.65;1.58;;;37.60;66.10;;;;;;5011426;28;20050;-61
2022/08/13 08:15:05;;;;;;;3.25;1.58;;;37.90;65.50;;;;;;5010673;28;20148;-61
2022/08/13 08:17:31;;;;;;;2.45;1.48;;;38.20;65.20;;;;;;5010923;28;20045;-61
2022/08/13 08:19:57;;;;;;;2.65;1.52;;;38.50;63.70;;;;;;5010484;28;20115;-62
2022/08/13 08:22:23;;;;;;;3.63;1.52;;;38.70;62.80;;;;;;5011118;28;20049;-65
2022/08/13 08:24:50;;;;;;;4.03;1.63;;;39.10;62.80;;;;;;5011567;28;20403;-62
2022/08/13 08:27:17;;;;;;;4.70;1.70;;;39.60;63.10;;;;;;5007641;28;20467;-62
2022/08/13 08:29:46;;;;;;;8.48;1.77;;;39.60;62.40;;;;;;5006120;28;20129;-62
2022/08/13 08:32:14;;;;;;;5.60;1.90;;;39.60;61.60;;;;;;5010112;28;20523;-62
2022/08/13 08:34:42;;;;;;;4.28;1.50;;;39.70;62.80;;;;;;5011007;28;20076;-63
2022/08/13 08:42:35;;;;;;;3.38;1.67;;;39.80;62.50;;;;;;5009949;28;20058;-62
2022/08/13 08:42:54;;;;;;;6.75;1.60;;;40.20;61.40;;;;;;5005985;28;20049;-63
2022/08/13 08:45:21;;;;;;;3.17;1.58;;;40.50;62.10;;;;;;5011231;28;20121;-63
2022/08/13 08:47:48;;;;;;;3.35;1.70;;;40.40;61.70;;;;;;5011023;28;20114;-62
2022/08/13 08:50:26;;;;;;;4.53;1.75;;;40.30;61.00;;;;;;5003464;28;20049;-62
2022/08/13 08:55:39;;;;;;;6.72;1.65;;;40.00;60.60;;;;;;5010539;28;20130;-61
2022/08/13 08:58:09;;;;;;;6.25;1.70;;;39.80;61.50;;;;;;5010751;28;20538;-62
2022/08/13 09:00:36;;;;;;;4.82;1.75;;;39.50;60.60;;;;;;5006766;28;20050;-61
2022/08/13 09:03:03;;;;;;;6.03;1.48;;;39.40;60.90;;;;;;5010938;28;20380;-62
2022/08/13 09:05:29;;;;;;;7.13;1.85;;;39.40;61.20;;;;;;5008107;28;20496;-65
2022/08/13 09:07:55;;;;;;;7.20;1.60;;;39.30;61.50;;;;;;5010428;28;20060;-63
2022/08/13 09:10:22;;;;;;;3.55;1.52;;;39.40;61.60;;;;;;5010653;28;20044;-62
2022/08/13 09:12:50;;;;;;;5.72;1.42;;;39.20;61.20;;;;;;5010137;28;20340;-62
2022/08/13 09:15:18;;;;;;;3.17;1.40;;;39.20;60.40;;;;;;5010441;28;20518;-62
2022/08/13 09:17:45;;;;;;;4.25;1.50;;;39.20;60.30;;;;;;5010593;28;20502;-62
2022/08/13 09:20:18;;;;;;;3.80;1.40;;;39.20;60.70;;;;;;5007875;28;20084;-63
2022/08/13 09:22:47;;;;;;;2.08;1.33;;;39.30;60.20;;;;;;5005066;28;20068;-62
2022/08/13 09:25:15;;;;;;;6.07;1.42;;;39.20;59.70;;;;;;5001972;28;20483;-62
2022/08/13 09:27:43;;;;;;;4.07;1.35;;;38.80;59.90;;;;;;5006369;28;20058;-62
2022/08/13 09:30:10;;;;;;;5.32;1.30;;;38.60;60.20;;;;;;4998285;28;20050;-61
2022/08/13 09:32:37;;;;;;;2.80;1.13;;;38.70;60.00;;;;;;4996841;28;20137;-62
2022/08/13 09:35:06;;;;;;;2.88;1.30;;;38.90;59.80;;;;;;4992089;28;20585;-62
2022/08/13 09:37:32;;;;;;;3.25;1.38;;;39.40;60.00;;;;;;4998857;28;20057;-64
2022/08/13 09:40:05;;;;;;;5.40;1.75;;;39.50;60.00;;;;;;5008417;28;20045;-61
2022/08/13 09:42:57;;;;;;;7.85;1.50;;;39.70;58.80;;;;;;5009463;28;20054;-61
2022/08/13 09:45:27;;;;;;;2.33;1.20;;;40.00;59.50;;;;;;5010163;28;20060;-63
2022/08/13 09:47:53;;;;;;;4.50;1.45;;;39.50;58.90;;;;;;4990527;28;20049;-63
2022/08/13 09:50:21;;;;;;;2.53;1.20;;;38.80;59.40;;;;;;5009792;28;20088;-63
2022/08/13 09:52:48;;;;;;;3.63;1.30;;;38.10;58.50;;;;;;5003177;28;20169;-61
2022/08/13 09:55:15;;;;;;;2.65;1.48;;;37.70;58.90;;;;;;4991642;28;20042;-62
2022/08/13 09:58:00;;;;;;;4.80;1.55;;;37.20;59.30;;;;;;5008260;28;20058;-61
2022/08/13 10:00:30;;;;;;;3.75;1.40;;;36.80;59.90;;;;;;5005123;28;20081;-62
2022/08/13 10:03:03;;;;;;;2.30;1.38;;;36.50;59.70;;;;;;5008049;28;20054;-62
2022/08/13 10:05:34;;;;;;;2.95;1.25;;;36.30;59.60;;;;;;5009820;28;20038;-62
2022/08/13 10:08:01;;;;;;;3.40;1.45;;;35.90;60.30;;;;;;5009920;28;20034;-61
2022/08/13 10:10:27;;;;;;;2.83;1.45;;;35.70;60.00;;;;;;5010491;28;20041;-61
2022/08/13 10:12:52;;;;;;;3.08;1.25;;;35.40;60.00;;;;;;5007912;28;20391;-61
2022/08/13 10:15:18;;;;;;;1.65;1.30;;;35.20;59.90;;;;;;5009346;28;20046;-63
2022/08/13 10:17:58;;;;;;;4.68;1.70;;;34.90;59.50;;;;;;5007188;28;20053;-62
2022/08/13 10:20:30;;;;;;;1.77;1.30;;;34.80;59.70;;;;;;5006098;28;20567;-62
2022/08/13 10:22:57;;;;;;;2.87;1.20;;;34.40;59.80;;;;;;5008712;28;20052;-62
2022/08/13 10:25:25;;;;;;;4.22;1.50;;;34.10;60.30;;;;;;5006972;28;20034;-61
2022/08/13 10:27:51;;;;;;;3.38;1.77;;;34.20;60.70;;;;;;5007018;28;20115;-61
2022/08/13 10:30:19;;;;;;;3.50;1.67;;;34.30;61.30;;;;;;5007928;28;20049;-62
2022/08/13 10:32:46;;;;;;;3.60;1.33;;;34.30;61.10;;;;;;5008302;28;20046;-61
2022/08/13 10:35:12;;;;;;;6.30;1.65;;;34.20;61.30;;;;;;5013670;28;20079;-62
2022/08/13 10:37:46;;;;;;;3.88;1.50;;;34.30;61.50;;;;;;5015088;28;20429;-61
2022/08/13 10:40:14;;;;;;;3.53;1.58;;;34.20;61.40;;;;;;5010230;28;20042;-61
2022/08/13 10:42:42;;;;;;;2.05;1.42;;;34.10;60.10;;;;;;5017619;28;20053;-62
2022/08/13 10:45:08;;;;;;;2.40;1.35;;;33.80;60.80;;;;;;5010789;28;20045;-62
2022/08/13 10:47:46;;;;;;;2.97;1.42;;;33.50;60.90;;;;;;5012121;28;20057;-62
2022/08/13 10:50:14;;;;;;;2.88;1.30;;;33.40;61.10;;;;;;5018578;28;20097;-63
2022/08/13 10:52:40;;;;;;;3.53;1.45;;;33.30;61.40;;;;;;5012924;28;20119;-62
2022/08/13 10:55:09;;;;;;;3.97;1.45;;;33.30;61.30;;;;;;4996410;28;20050;-62
2022/08/13 10:57:43;;;;;;;2.97;1.60;;;33.30;61.40;;;;;;5013295;28;20127;-62
2022/08/13 11:00:12;;;;;;;3.25;1.55;;;33.30;61.70;;;;;;5008416;28;20041;-62
2022/08/13 11:02:38;;;;;;;2.88;1.50;;;33.30;61.50;;;;;;5012343;28;20057;-62
2022/08/13 11:05:08;;;;;;;3.97;1.40;;;33.40;61.30;;;;;;4994103;28;20046;-62
2022/08/13 11:07:39;;;;;;;4.07;1.55;;;33.50;60.90;;;;;;5012410;28;20072;-62
2022/08/13 11:10:07;;;;;;;3.45;1.50;;;33.60;60.80;;;;;;5007991;28;20081;-63
2022/08/13 11:12:50;;;;;;;1.98;1.40;;;33.70;60.70;;;;;;5012024;28;20403;-63
2022/08/13 11:15:22;;;;;;;4.57;1.55;;;33.50;60.80;;;;;;5012213;28;20501;-62
2022/08/13 11:17:50;;;;;;;2.92;1.60;;;33.30;61.00;;;;;;5012033;28;20125;-65
2022/08/13 11:20:19;;;;;;;3.88;1.52;;;33.20;61.10;;;;;;5012281;28;20064;-62
2022/08/13 11:22:47;;;;;;;3.20;1.50;;;33.20;61.40;;;;;;5012512;28;20053;-61
2022/08/13 11:25:13;;;;;;;1.60;1.30;;;33.00;61.10;;;;;;5013063;28;20046;-62
2022/08/13 11:27:39;;;;;;;2.25;1.70;;;32.90;61.70;;;;;;5010953;28;20053;-62
2022/08/13 11:30:05;;;;;;;4.60;1.60;;;32.90;61.40;;;;;;5011615;28;20363;-62
2022/08/13 11:32:31;;;;;;;2.38;1.60;;;32.90;61.70;;;;;;5011509;28;20046;-62
2022/08/13 11:34:57;;;;;;;3.97;1.38;;;32.80;61.60;;;;;;5002695;28;20541;-62
2022/08/13 11:37:23;;;;;;;2.42;1.52;;;32.80;61.50;;;;;;5010224;28;20132;-62
2022/08/13 11:39:48;;;;;;;2.40;1.58;;;32.70;61.50;;;;;;5009667;28;20169;-64
2022/08/13 11:42:14;;;;;;;2.38;1.50;;;32.70;61.60;;;;;;5011480;28;20057;-62
2022/08/13 11:44:40;;;;;;;3.35;1.70;;;32.60;61.60;;;;;;5010869;28;20050;-62
2022/08/13 11:47:06;;;;;;;3.38;1.48;;;32.60;61.60;;;;;;5011505;28;20041;-62
2022/08/13 11:49:31;;;;;;;5.57;1.73;;;32.50;61.40;;;;;;5011869;28;20050;-62
2022/08/13 11:51:57;;;;;;;3.20;1.50;;;32.50;61.50;;;;;;5009851;28;20390;-62
2022/08/13 11:54:24;;;;;;;4.88;1.65;;;32.50;61.80;;;;;;5011320;28;20155;-63
2022/08/13 11:56:50;;;;;;;4.70;1.40;;;32.50;62.00;;;;;;5010198;28;20041;-62
2022/08/13 11:59:15;;;;;;;5.20;1.40;;;32.50;61.80;;;;;;5010556;28;21256;-63
2022/08/13 12:01:41;;;;;;;4.05;1.67;;;32.50;61.60;;;;;;5007795;28;20050;-63
2022/08/13 12:04:07;;;;;;;4.38;1.40;;;32.50;62.00;;;;;;5011305;28;20053;-62
2022/08/13 12:06:34;;;;;;;5.50;1.60;;;32.60;61.70;;;;;;5011194;28;20053;-62
2022/08/13 12:09:00;;;;;;;2.53;1.60;;;32.50;62.40;;;;;;5011220;28;20507;-62
2022/08/13 12:11:26;;;;;;;1.55;1.40;;;32.60;62.10;;;;;;5011096;28;20046;-63
2022/08/13 12:13:52;;;;;;;4.55;1.58;;;32.60;61.80;;;;;;5011477;28;20050;-62
2022/08/13 12:16:18;;;;;;;3.40;1.42;;;32.60;62.40;;;;;;4992668;28;20502;-63
2022/08/13 12:18:43;;;;;;;3.80;1.45;;;32.70;62.00;;;;;;5011450;28;20440;-63
2022/08/13 12:21:09;;;;;;;3.97;1.63;;;32.80;61.80;;;;;;4992249;28;20050;-62
2022/08/13 12:23:35;;;;;;;3.78;1.77;;;32.80;61.90;;;;;;5011267;28;20095;-61
2022/08/13 12:26:00;;;;;;;3.08;1.60;;;32.80;61.90;;;;;;5009207;28;20046;-62
2022/08/13 12:28:28;;;;;;;5.78;1.50;;;32.60;61.30;;;;;;5011726;28;20380;-62
2022/08/13 12:30:58;;;;;;;3.25;1.50;;;32.50;61.60;;;;;;5010939;28;20431;-62
2022/08/13 12:33:27;;;;;;;5.05;1.50;;;32.50;61.90;;;;;;5011194;28;20483;-62
2022/08/13 12:35:53;;;;;;;3.58;1.75;;;32.50;61.50;;;;;;5005031;28;20034;-62
2022/08/13 12:38:18;;;;;;;2.20;1.60;;;32.40;61.20;;;;;;5009621;28;20096;-62
2022/08/13 12:40:46;;;;;;;2.53;1.40;;;32.40;61.60;;;;;;5013719;28;20085;-61
2022/08/13 12:43:12;;;;;;;4.50;1.48;;;32.30;61.30;;;;;;5015051;28;20060;-61
2022/08/13 12:45:39;;;;;;;2.85;1.50;;;32.30;62.00;;;;;;5023875;28;20055;-62
2022/08/13 12:48:06;;;;;;;2.92;1.42;;;32.50;62.10;;;;;;5013860;28;20053;-62
2022/08/13 12:50:33;;;;;;;19.90;1.85;;;32.70;62.00;;;;;;5017631;28;20046;-61
2022/08/13 12:52:59;;;;;;;5.35;1.88;;;32.80;61.60;;;;;;5012900;28;20064;-65
2022/08/13 12:55:25;;;;;;;2.20;1.50;;;32.80;61.70;;;;;;5016254;28;20049;-62
2022/08/13 12:57:51;;;;;;;2.63;1.67;;;32.80;61.90;;;;;;5012052;28;20042;-62
2022/08/13 13:00:17;;;;;;;3.83;1.40;;;32.80;61.40;;;;;;5015643;28;20049;-62
2022/08/13 13:02:43;;;;;;;3.08;1.50;;;32.80;61.30;;;;;;5016637;28;20518;-62
2022/08/13 13:05:08;;;;;;;10.38;1.60;;;32.80;61.30;;;;;;5014664;28;20548;-61
2022/08/13 13:07:34;;;;;;;3.97;1.60;;;32.70;61.40;;;;;;5009643;28;20046;-63
2022/08/13 13:10:00;;;;;;;2.75;1.60;;;32.60;61.60;;;;;;5012394;28;20140;-62